createdAt,value
2022-10-11T00:02:12.212Z,58.80
2022-10-11T00:04:39.100Z,58.84
2022-10-11T00:07:06.002Z,58.82
2022-10-11T00:09:32.897Z,58.98
2022-10-11T00:12:00.117Z,58.95
2022-10-11T00:14:28.112Z,58.75
2022-10-11T00:16:55.425Z,59.03
2022-10-11T00:19:23.027Z,59.17
2022-10-11T00:21:50.240Z,59.06
2022-10-11T00:24:17.168Z,58.98
2022-10-11T00:26:46.926Z,59.10
2022-10-11T00:29:14.470Z,59.36
2022-10-11T00:31:41.539Z,59.61
2022-10-11T00:34:10.087Z,59.23
2022-10-11T00:36:36.965Z,59.37
2022-10-11T00:39:04.475Z,59.50
2022-10-11T00:41:31.348Z,59.67
2022-10-11T00:44:28.351Z,59.61
2022-10-11T00:46:58.261Z,59.48
2022-10-11T00:49:48.521Z,59.61
2022-10-11T00:52:31.831Z,59.79
2022-10-11T00:55:18.804Z,59.84
2022-10-11T00:57:48.938Z,59.94
2022-10-11T01:00:16.654Z,60.19
2022-10-11T01:02:43.765Z,60.04
2022-10-11T01:05:29.217Z,60.34
2022-10-11T01:07:58.944Z,60.20
2022-10-11T01:10:26.968Z,60.43
2022-10-11T01:13:18.149Z,60.69
2022-10-11T01:16:18.356Z,60.64
2022-10-11T01:19:20.473Z,60.70
2022-10-11T01:22:21.601Z,60.97
2022-10-11T01:24:57.341Z,61.06
2022-10-11T01:27:53.746Z,61.31
2022-10-11T01:30:27.475Z,61.15
2022-10-11T01:33:21.063Z,61.30
2022-10-11T01:36:04.261Z,61.27
2022-10-11T01:38:50.682Z,61.61
2022-10-11T01:41:25.829Z,61.64
2022-10-11T01:43:59.139Z,61.52
2022-10-11T01:46:28.559Z,61.73
2022-10-11T01:48:59.032Z,61.68
2022-10-11T01:51:33.545Z,61.71
2022-10-11T01:55:08.243Z,62.00
2022-10-11T01:58:08.533Z,61.82
2022-10-11T02:01:00.457Z,62.19
2022-10-11T02:04:05.145Z,62.09
2022-10-11T02:07:16.656Z,62.31
2022-10-11T02:09:54.588Z,62.47
2022-10-11T02:12:38.252Z,62.54
2022-10-11T02:15:09.394Z,62.82
2022-10-11T02:17:49.436Z,62.88
2022-10-11T02:20:21.863Z,63.02
2022-10-11T02:22:54.715Z,62.58
2022-10-11T02:25:27.043Z,63.21
2022-10-11T02:27:58.896Z,63.29
2022-10-11T02:30:25.941Z,63.48
2022-10-11T02:32:54.681Z,63.34
2022-10-11T02:35:27.281Z,63.49
2022-10-11T02:38:03.241Z,63.55
2022-10-11T02:40:35.223Z,63.50
2022-10-11T02:43:17.594Z,63.28
2022-10-11T02:45:51.196Z,63.69
2022-10-11T02:48:19.127Z,63.46
2022-10-11T02:50:46.192Z,63.59
2022-10-11T02:53:13.117Z,63.51
2022-10-11T02:55:40.085Z,63.60
2022-10-11T02:58:06.955Z,63.37
2022-10-11T03:00:33.942Z,63.34
2022-10-11T03:03:00.831Z,63.48
2022-10-11T03:05:27.807Z,63.50
2022-10-11T03:07:54.677Z,63.81
2022-10-11T03:10:21.636Z,63.61
2022-10-11T03:12:48.667Z,63.93
2022-10-11T03:15:15.624Z,64.00
2022-10-11T03:17:42.489Z,63.83
2022-10-11T03:20:09.731Z,64.16
2022-10-11T03:22:36.634Z,64.23
2022-10-11T03:25:04.748Z,63.98
2022-10-11T03:27:33.305Z,64.17
2022-10-11T03:30:00.518Z,64.11
2022-10-11T03:32:27.801Z,64.06
2022-10-11T03:34:54.715Z,64.45
2022-10-11T03:37:21.580Z,64.60
2022-10-11T03:39:49.508Z,64.51
2022-10-11T03:42:16.843Z,64.66
2022-10-11T03:44:43.731Z,64.56
2022-10-11T03:47:10.619Z,64.77
2022-10-11T03:49:42.616Z,64.78
2022-10-11T03:52:11.005Z,65.14
2022-10-11T03:54:37.932Z,65.13
2022-10-11T03:57:04.833Z,65.14
2022-10-11T03:59:31.790Z,65.00
2022-10-11T04:01:58.790Z,65.19
2022-10-11T04:04:25.742Z,65.15
2022-10-11T04:06:52.614Z,65.15
2022-10-11T04:09:19.520Z,65.34
2022-10-11T04:11:46.406Z,65.33
2022-10-11T04:14:13.310Z,65.62
2022-10-11T04:16:41.132Z,65.07
2022-10-11T04:19:08.013Z,65.12
2022-10-11T04:21:34.880Z,65.20
2022-10-11T04:24:01.769Z,65.06
2022-10-11T04:26:28.665Z,65.11
2022-10-11T04:28:55.651Z,65.45
2022-10-11T04:31:22.595Z,65.47
2022-10-11T04:33:50.059Z,65.23
2022-10-11T04:36:16.940Z,65.38
2022-10-11T04:38:43.847Z,65.06
2022-10-11T04:41:13.786Z,65.08
2022-10-11T04:43:40.708Z,65.33
2022-10-11T04:46:09.040Z,65.50
2022-10-11T04:48:36.584Z,65.11
2022-10-11T04:51:03.480Z,64.99
2022-10-11T04:53:30.410Z,65.25
2022-10-11T04:56:11.070Z,65.47
2022-10-11T04:58:41.048Z,65.39
2022-10-11T05:01:09.371Z,65.18
2022-10-11T05:03:37.232Z,65.45
2022-10-11T05:06:06.124Z,65.29
2022-10-11T05:08:33.752Z,64.89
2022-10-11T05:11:04.335Z,65.23
2022-10-11T05:13:33.206Z,65.28
2022-10-11T05:16:00.330Z,65.50
2022-10-11T05:18:27.711Z,65.19
2022-10-11T05:21:18.407Z,65.22
2022-10-11T05:23:47.333Z,64.97
2022-10-11T05:26:15.024Z,64.99
2022-10-11T05:28:41.966Z,64.94
2022-10-11T05:31:09.015Z,65.00
2022-10-11T05:33:36.325Z,64.75
2022-10-11T05:36:04.132Z,65.36
2022-10-11T05:38:31.283Z,65.07
2022-10-11T05:41:02.965Z,65.16
2022-10-11T05:43:30.558Z,65.36
2022-10-11T05:45:57.685Z,65.19
2022-10-11T05:48:26.567Z,65.45
2022-10-11T05:50:59.031Z,65.40
2022-10-11T05:53:26.362Z,65.48
2022-10-11T05:55:53.223Z,65.45
2022-10-11T05:58:20.319Z,65.71
2022-10-11T06:00:47.175Z,65.63
2022-10-11T06:03:15.504Z,65.83
2022-10-11T06:05:42.528Z,65.92
2022-10-11T06:08:10.750Z,66.00
2022-10-11T06:10:38.710Z,66.00
2022-10-11T06:13:06.261Z,66.27
2022-10-11T06:15:33.873Z,65.89
2022-10-11T06:18:00.988Z,66.26
2022-10-11T06:20:28.297Z,66.29
2022-10-11T06:22:55.290Z,66.29
2022-10-11T06:25:22.196Z,66.23
2022-10-11T06:27:49.058Z,66.42
2022-10-11T06:30:16.056Z,66.27
2022-10-11T06:32:43.069Z,66.43
2022-10-11T06:35:10.351Z,66.51
2022-10-11T06:37:37.247Z,66.37
2022-10-11T06:40:04.879Z,66.62
2022-10-11T06:42:31.744Z,66.40
2022-10-11T06:44:58.622Z,66.34
2022-10-11T06:47:25.485Z,66.31
2022-10-11T06:49:52.465Z,66.20
2022-10-11T06:52:19.664Z,66.11
2022-10-11T06:54:46.543Z,66.34
2022-10-11T06:57:13.430Z,66.13
2022-10-11T06:59:40.332Z,66.12
2022-10-11T07:02:07.361Z,66.04
2022-10-11T07:04:34.249Z,65.86
2022-10-11T07:07:01.174Z,65.84
2022-10-11T07:09:28.055Z,66.12
2022-10-11T07:11:54.970Z,66.05
2022-10-11T07:14:21.881Z,65.94
2022-10-11T07:16:48.746Z,65.75
2022-10-11T07:19:15.700Z,65.97
2022-10-11T07:21:42.608Z,65.59
2022-10-11T07:24:09.809Z,65.66
2022-10-11T07:26:38.755Z,65.44
2022-10-11T07:29:09.998Z,65.36
2022-10-11T07:31:39.718Z,65.18
2022-10-11T07:34:06.615Z,65.14
2022-10-11T07:36:33.473Z,65.16
2022-10-11T07:39:00.484Z,65.34
2022-10-11T07:41:27.360Z,65.14
2022-10-11T07:43:55.018Z,64.82
2022-10-11T07:46:22.311Z,64.62
2022-10-11T07:48:50.316Z,64.56
2022-10-11T07:51:22.654Z,64.56
2022-10-11T07:53:53.248Z,64.09
2022-10-11T07:56:24.560Z,63.91
2022-10-11T07:58:58.382Z,64.20
2022-10-11T08:01:26.989Z,64.02
2022-10-11T08:03:54.558Z,63.95
2022-10-11T08:06:27.160Z,64.11
2022-10-11T08:08:54.040Z,63.69
2022-10-11T08:11:31.086Z,63.32
2022-10-11T08:13:59.563Z,63.22
2022-10-11T08:16:26.453Z,63.30
2022-10-11T08:18:55.357Z,63.13
2022-10-11T08:21:22.256Z,63.02
2022-10-11T08:23:49.196Z,62.77
2022-10-11T08:26:16.078Z,62.75
2022-10-11T08:28:43.091Z,62.69
2022-10-11T08:31:14.049Z,62.38
2022-10-11T08:33:41.423Z,62.15
2022-10-11T08:36:09.925Z,62.13
2022-10-11T08:38:38.127Z,61.87
2022-10-11T08:41:27.208Z,61.85
2022-10-11T08:44:09.115Z,61.81
2022-10-11T08:46:38.000Z,61.73
2022-10-11T08:49:07.331Z,61.64
2022-10-11T08:51:43.111Z,61.35
2022-10-11T08:54:40.348Z,60.76
2022-10-11T08:57:13.277Z,60.93
2022-10-11T08:59:51.340Z,60.12
2022-10-11T09:02:55.654Z,59.74
2022-10-11T09:05:20.570Z,59.54
2022-10-11T09:08:47.080Z,58.59
2022-10-11T09:12:05.522Z,58.55
2022-10-11T09:14:57.195Z,57.85
2022-10-11T09:18:21.683Z,57.40
2022-10-11T09:21:20.085Z,57.54
2022-10-11T09:24:30.722Z,57.07
2022-10-11T09:27:01.607Z,56.61
2022-10-11T09:29:51.704Z,55.35
2022-10-11T09:32:23.266Z,55.30
2022-10-11T09:35:10.597Z,54.78
2022-10-11T09:37:48.781Z,54.89
2022-10-11T09:40:47.612Z,54.71
2022-10-11T09:43:14.603Z,54.29
2022-10-11T09:45:49.416Z,53.99
2022-10-11T09:48:23.652Z,53.66
2022-10-11T09:50:51.626Z,52.07
2022-10-11T09:53:19.343Z,51.96
2022-10-11T09:55:53.644Z,51.62
2022-10-11T09:58:35.348Z,51.95
2022-10-11T10:01:22.739Z,51.22
2022-10-11T10:04:16.878Z,51.48
2022-10-11T10:06:43.812Z,51.08
2022-10-11T10:09:30.476Z,50.94
2022-10-11T10:11:58.023Z,49.94
2022-10-11T10:14:30.063Z,49.80
2022-10-11T10:17:08.063Z,50.25
2022-10-11T10:19:50.238Z,49.46
2022-10-11T10:22:24.397Z,49.65
2022-10-11T10:24:52.311Z,50.02
2022-10-11T10:27:29.449Z,49.80
2022-10-11T10:30:07.394Z,49.76
2022-10-11T10:32:53.236Z,48.03
2022-10-11T10:35:52.506Z,48.41
2022-10-11T10:38:35.693Z,48.80
2022-10-11T10:41:12.630Z,48.94
2022-10-11T10:43:46.052Z,48.58
2022-10-11T10:46:22.687Z,48.61
2022-10-11T10:49:52.486Z,47.72
2022-10-11T10:53:03.052Z,48.20
2022-10-11T10:56:09.206Z,48.73
2022-10-11T10:59:11.472Z,48.36
2022-10-11T11:02:11.172Z,48.37
2022-10-11T11:05:07.365Z,48.31
2022-10-11T11:07:42.316Z,46.65
2022-10-11T11:10:15.467Z,46.08
2022-10-11T11:13:20.182Z,46.46
2022-10-11T11:16:10.730Z,46.39
2022-10-11T11:19:03.429Z,46.60
2022-10-11T11:22:04.378Z,45.30
2022-10-11T11:24:46.961Z,45.63
2022-10-11T11:27:52.726Z,45.00
2022-10-11T11:30:27.073Z,44.75
2022-10-11T11:33:28.377Z,45.14
2022-10-11T11:35:58.691Z,45.33
2022-10-11T11:38:44.435Z,45.58
2022-10-11T11:41:38.505Z,45.32
2022-10-11T11:44:41.575Z,45.42
2022-10-11T11:47:29.230Z,46.38
2022-10-11T11:50:04.837Z,45.54
2022-10-11T11:52:44.013Z,45.41
2022-10-11T11:55:32.369Z,45.65
2022-10-11T11:58:34.494Z,45.81
2022-10-11T12:01:37.330Z,44.01
2022-10-11T12:04:18.539Z,43.56
2022-10-11T12:07:04.377Z,44.47
2022-10-11T12:09:34.081Z,44.37
2022-10-11T12:12:05.304Z,44.25
2022-10-11T12:14:39.659Z,43.76
2022-10-11T12:17:16.483Z,43.70
2022-10-11T12:20:04.618Z,43.37
2022-10-11T12:22:31.379Z,43.74
2022-10-11T12:25:18.389Z,43.77
2022-10-11T12:27:52.269Z,43.55
2022-10-11T12:30:44.176Z,43.91
2022-10-11T12:33:49.035Z,43.84
2022-10-11T12:36:39.756Z,44.21
2022-10-11T12:39:19.055Z,43.86
2022-10-11T12:41:53.555Z,44.38
2022-10-11T12:44:28.710Z,44.26
2022-10-11T12:46:55.633Z,44.40
2022-10-11T12:49:32.202Z,43.83
2022-10-11T12:52:24.993Z,43.68
2022-10-11T12:55:09.739Z,43.60
2022-10-11T12:57:49.946Z,44.28
2022-10-11T13:00:21.667Z,44.11
2022-10-11T13:02:49.076Z,43.58
2022-10-11T13:05:32.214Z,44.03
2022-10-11T13:08:04.374Z,44.52
2022-10-11T13:10:40.627Z,44.32
2022-10-11T13:13:20.693Z,43.97
2022-10-11T13:15:47.901Z,43.89
2022-10-11T13:18:17.805Z,43.82
2022-10-11T13:20:45.001Z,43.88
2022-10-11T13:23:38.915Z,44.00
2022-10-11T13:26:05.957Z,44.00
2022-10-11T13:28:36.257Z,43.52
2022-10-11T13:31:05.408Z,42.92
2022-10-11T13:33:37.085Z,43.45
2022-10-11T13:36:07.082Z,43.26
2022-10-11T13:38:36.977Z,43.27
2022-10-11T13:41:07.976Z,42.95
2022-10-11T13:43:36.118Z,42.98
2022-10-11T13:46:06.993Z,42.61
2022-10-11T13:48:40.897Z,42.59
2022-10-11T13:51:34.910Z,42.48
2022-10-11T13:54:05.865Z,42.87
2022-10-11T13:56:43.592Z,43.39
2022-10-11T13:59:22.078Z,43.31
2022-10-11T14:01:51.982Z,43.30
2022-10-11T14:04:18.957Z,42.85
2022-10-11T14:06:56.593Z,42.71
2022-10-11T14:09:40.049Z,43.11
2022-10-11T14:12:44.382Z,43.29
2022-10-11T14:15:34.472Z,43.14
2022-10-11T14:18:03.358Z,43.37
2022-10-11T14:20:41.719Z,43.51
2022-10-11T14:23:08.598Z,43.79
2022-10-11T14:25:35.658Z,43.84
2022-10-11T14:28:02.590Z,44.06
2022-10-11T14:30:31.504Z,43.97
2022-10-11T14:33:01.436Z,43.99
2022-10-11T14:35:31.787Z,44.71
2022-10-11T14:37:59.179Z,44.58
2022-10-11T14:40:30.037Z,44.72
2022-10-11T14:42:57.660Z,44.66
2022-10-11T14:45:24.803Z,45.20
2022-10-11T14:47:51.981Z,45.28
2022-10-11T14:50:41.784Z,44.84
2022-10-11T14:53:11.300Z,45.42
2022-10-11T14:55:40.626Z,45.55
2022-10-11T14:58:09.606Z,45.45
2022-10-11T15:00:36.958Z,45.03
2022-10-11T15:03:07.064Z,45.10
2022-10-11T15:05:35.173Z,45.54
2022-10-11T15:08:04.988Z,45.42
2022-10-11T15:10:40.825Z,45.98
2022-10-11T15:13:08.598Z,45.56
2022-10-11T15:15:40.818Z,45.51
2022-10-11T15:18:12.383Z,45.85
2022-10-11T15:20:43.036Z,46.19
2022-10-11T15:23:10.824Z,46.00
2022-10-11T15:25:39.319Z,46.48
2022-10-11T15:28:07.446Z,46.20
2022-10-11T15:30:41.252Z,46.19
2022-10-11T15:33:09.169Z,46.43
2022-10-11T15:35:36.081Z,46.51
2022-10-11T15:38:03.390Z,46.12
2022-10-11T15:40:35.998Z,46.21
2022-10-11T15:43:03.758Z,46.49
2022-10-11T15:45:31.196Z,46.68
2022-10-11T15:47:58.534Z,46.62
2022-10-11T15:50:37.233Z,46.74
2022-10-11T15:53:12.694Z,46.62
2022-10-11T15:55:46.131Z,46.34
2022-10-11T15:58:34.816Z,47.13
2022-10-11T16:01:15.967Z,47.23
2022-10-11T16:03:43.408Z,46.89
2022-10-11T16:06:10.774Z,47.20
2022-10-11T16:08:38.298Z,46.68
2022-10-11T16:11:07.190Z,47.22
2022-10-11T16:13:34.619Z,46.84
2022-10-11T16:16:04.376Z,47.27
2022-10-11T16:18:35.303Z,47.50
2022-10-11T16:21:09.066Z,47.45
2022-10-11T16:23:36.712Z,47.02
2022-10-11T16:26:08.828Z,47.44
2022-10-11T16:28:36.308Z,47.04
2022-10-11T16:31:09.041Z,47.50
2022-10-11T16:33:45.415Z,47.67
2022-10-11T16:36:32.416Z,47.89
2022-10-11T16:39:01.447Z,47.47
2022-10-11T16:41:28.339Z,47.55
2022-10-11T16:43:56.027Z,47.95
2022-10-11T16:46:22.908Z,48.28
2022-10-11T16:48:49.851Z,47.97
2022-10-11T16:51:16.796Z,48.12
2022-10-11T16:53:43.672Z,48.12
2022-10-11T16:56:12.084Z,48.76
2022-10-11T16:58:38.978Z,48.78
2022-10-11T17:01:10.889Z,48.66
2022-10-11T17:03:38.659Z,48.97
2022-10-11T17:06:06.777Z,48.59
2022-10-11T17:08:35.133Z,48.52
2022-10-11T17:11:02.628Z,49.04
2022-10-11T17:13:29.800Z,49.22
2022-10-11T17:15:56.884Z,49.14
2022-10-11T17:18:23.971Z,48.68
2022-10-11T17:20:50.857Z,48.94
2022-10-11T17:23:17.729Z,49.09
2022-10-11T17:25:47.062Z,49.34
2022-10-11T17:28:14.133Z,48.98
2022-10-11T17:30:42.113Z,49.38
2022-10-11T17:33:09.398Z,49.33
2022-10-11T17:35:36.354Z,49.19
2022-10-11T17:38:06.408Z,49.32
2022-10-11T17:40:33.568Z,49.45
2022-10-11T17:43:00.440Z,49.58
2022-10-11T17:45:27.314Z,49.14
2022-10-11T17:47:54.193Z,49.27
2022-10-11T17:50:21.104Z,49.58
2022-10-11T17:52:48.014Z,49.76
2022-10-11T17:55:14.994Z,49.78
2022-10-11T17:57:41.910Z,49.67
2022-10-11T18:00:09.798Z,49.82
2022-10-11T18:02:38.507Z,50.08
2022-10-11T18:05:07.041Z,49.99
2022-10-11T18:07:34.526Z,49.72
2022-10-11T18:10:01.412Z,50.15
2022-10-11T18:12:28.355Z,49.93
2022-10-11T18:14:55.231Z,49.85
2022-10-11T18:17:22.108Z,50.25
2022-10-11T18:19:48.987Z,50.09
2022-10-11T18:22:15.866Z,50.28
2022-10-11T18:24:42.809Z,50.57
2022-10-11T18:27:09.700Z,50.51
2022-10-11T18:29:36.591Z,50.24
2022-10-11T18:32:03.472Z,50.35
2022-10-11T18:34:30.352Z,50.57
2022-10-11T18:36:57.620Z,50.31
2022-10-11T18:39:24.534Z,50.94
2022-10-11T18:41:51.512Z,50.79
2022-10-11T18:44:18.383Z,50.67
2022-10-11T18:46:46.155Z,50.96
2022-10-11T18:49:13.680Z,50.79
2022-10-11T18:51:42.377Z,50.83
2022-10-11T18:54:15.221Z,51.13
2022-10-11T18:56:45.676Z,50.82
2022-10-11T18:59:12.559Z,50.92
2022-10-11T19:01:44.510Z,50.73
2022-10-11T19:04:15.820Z,51.07
2022-10-11T19:06:49.647Z,50.84
2022-10-11T19:09:22.210Z,51.20
2022-10-11T19:11:54.405Z,50.85
2022-10-11T19:14:25.762Z,51.19
2022-10-11T19:16:53.208Z,51.01
2022-10-11T19:19:23.936Z,51.01
2022-10-11T19:21:51.286Z,51.20
2022-10-11T19:24:20.859Z,51.24
2022-10-11T19:26:48.292Z,51.13
2022-10-11T19:29:19.642Z,51.53
2022-10-11T19:31:55.767Z,51.56
2022-10-11T19:34:26.866Z,51.26
2022-10-11T19:36:57.723Z,51.75
2022-10-11T19:39:25.454Z,51.34
2022-10-11T19:41:53.584Z,51.29
2022-10-11T19:44:20.756Z,51.50
2022-10-11T19:46:52.010Z,51.71
2022-10-11T19:49:25.051Z,51.82
2022-10-11T19:51:53.598Z,51.52
2022-10-11T19:54:20.468Z,52.02
2022-10-11T19:56:47.691Z,51.60
2022-10-11T19:59:15.715Z,51.44
2022-10-11T20:01:45.590Z,51.92
2022-10-11T20:04:33.564Z,52.14
2022-10-11T20:07:03.511Z,51.57
2022-10-11T20:09:31.129Z,52.29
2022-10-11T20:11:58.721Z,52.24
2022-10-11T20:14:25.877Z,52.19
2022-10-11T20:16:52.764Z,52.16
2022-10-11T20:19:20.069Z,52.35
2022-10-11T20:21:47.821Z,52.29
2022-10-11T20:24:14.813Z,52.46
2022-10-11T20:26:41.727Z,52.53
2022-10-11T20:29:08.749Z,52.32
2022-10-11T20:31:40.722Z,51.98
2022-10-11T20:34:07.939Z,52.51
2022-10-11T20:36:36.174Z,52.43
2022-10-11T20:39:04.287Z,52.13
2022-10-11T20:41:36.884Z,52.31
2022-10-11T20:44:04.775Z,52.41
2022-10-11T20:46:38.513Z,52.74
2022-10-11T20:49:11.197Z,52.58
2022-10-11T20:51:40.297Z,52.74
2022-10-11T20:54:07.632Z,52.57
2022-10-11T20:56:35.409Z,52.60
2022-10-11T20:59:02.423Z,52.62
2022-10-11T21:01:35.543Z,52.51
2022-10-11T21:04:03.528Z,52.89
2022-10-11T21:06:32.624Z,53.08
2022-10-11T21:09:00.319Z,53.04
2022-10-11T21:11:29.109Z,52.66
2022-10-11T21:13:58.003Z,52.88
2022-10-11T21:16:25.243Z,52.77
2022-10-11T21:18:54.048Z,52.91
2022-10-11T21:21:23.811Z,53.16
2022-10-11T21:23:58.052Z,53.64
2022-10-11T21:26:25.126Z,53.40
2022-10-11T21:28:52.086Z,53.89
2022-10-11T21:31:21.004Z,53.63
2022-10-11T21:33:48.464Z,53.94
2022-10-11T21:36:19.011Z,53.84
2022-10-11T21:38:46.493Z,53.81
2022-10-11T21:41:22.216Z,53.93
2022-10-11T21:43:49.609Z,54.07
2022-10-11T21:46:23.771Z,53.97
2022-10-11T21:48:52.400Z,54.11
2022-10-11T21:51:29.567Z,54.41
2022-10-11T21:54:00.039Z,54.05
2022-10-11T21:56:28.392Z,54.15
2022-10-11T21:58:55.536Z,54.61
2022-10-11T22:01:22.684Z,54.40
2022-10-11T22:03:50.321Z,54.98
2022-10-11T22:06:17.217Z,54.83
2022-10-11T22:08:44.138Z,54.96
2022-10-11T22:11:11.864Z,55.07
2022-10-11T22:13:39.113Z,54.98
2022-10-11T22:16:08.659Z,55.00
2022-10-11T22:18:36.113Z,55.04
2022-10-11T22:21:13.365Z,55.22
2022-10-11T22:23:42.347Z,55.53
2022-10-11T22:26:16.392Z,55.55
2022-10-11T22:28:43.685Z,55.16
2022-10-11T22:31:11.300Z,55.47
2022-10-11T22:33:39.069Z,55.62
2022-10-11T22:36:12.136Z,55.58
2022-10-11T22:38:41.499Z,55.64
2022-10-11T22:41:09.034Z,55.76
2022-10-11T22:43:36.085Z,55.68
2022-10-11T22:46:03.837Z,55.76
2022-10-11T22:48:30.780Z,55.69
2022-10-11T22:50:57.876Z,55.71
2022-10-11T22:53:24.786Z,55.97
2022-10-11T22:55:51.689Z,55.70
2022-10-11T22:58:18.649Z,55.92
2022-10-11T23:00:45.529Z,55.86
2022-10-11T23:03:14.344Z,55.71
2022-10-11T23:05:41.303Z,55.73
2022-10-11T23:08:09.538Z,56.09
2022-10-11T23:10:40.310Z,55.78
2022-10-11T23:13:07.368Z,55.81
2022-10-11T23:15:34.249Z,56.01
2022-10-11T23:18:01.121Z,55.91
2022-10-11T23:20:28.007Z,56.06
2022-10-11T23:22:54.860Z,55.95
2022-10-11T23:25:21.737Z,56.00
2022-10-11T23:27:48.618Z,55.97
2022-10-11T23:30:15.572Z,55.90
2022-10-11T23:32:42.446Z,56.08
2022-10-11T23:35:09.672Z,56.12
2022-10-11T23:37:36.772Z,56.53
2022-10-11T23:40:04.703Z,56.16
2022-10-11T23:42:31.628Z,56.49
2022-10-11T23:44:58.487Z,56.03
2022-10-11T23:47:25.350Z,56.57
2022-10-11T23:49:52.699Z,56.52
2022-10-11T23:52:19.616Z,56.67
2022-10-11T23:54:46.505Z,56.73
2022-10-11T23:57:13.446Z,56.53
2022-10-11T23:59:40.321Z,56.54
